Time;durP1;ratioP1;P1;durP2;ratioP2;P2;SDS_P1;SDS_P2;PMS_P1;PMS_P2;Temp;Humidity;BMP_temperature;BMP_pressure;BME280_temperature;BME280_humidity;BME280_pressure;Samples;Min_cycle;Max_cycle;Signal;HPM_P1;HPM_P2
2021/10/25 00:00:51;;;;;;;9.18;2.40;;;;;;;-0.71;70.76;100669.88;4975542;28;20038;-79
2021/10/25 00:03:17;;;;;;;6.93;2.42;;;;;;;-0.73;70.78;100668.19;4927015;28;20049;-79
2021/10/25 00:05:43;;;;;;;10.02;2.05;;;;;;;-0.75;70.80;100675.13;4976059;28;20556;-80
2021/10/25 00:08:10;;;;;;;9.15;2.40;;;;;;;-0.80;70.92;100675.19;4976671;28;20081;-79
2021/10/25 00:10:40;;;;;;;5.32;2.28;;;;;;;-0.80;70.92;100682.13;4959219;28;20039;-80
2021/10/25 00:13:06;;;;;;;8.95;2.60;;;;;;;-0.80;71.22;100685.59;4939040;29;20047;-82
2021/10/25 00:15:31;;;;;;;5.72;2.83;;;;;;;-0.79;70.94;100697.69;4954798;29;20054;-79
2021/10/25 00:17:59;;;;;;;4.63;2.17;;;;;;;-0.77;70.88;100689.88;4956900;28;20393;-79
2021/10/25 00:20:25;;;;;;;7.05;2.38;;;;;;;-0.87;71.32;100703.00;4959355;28;20069;-83
2021/10/25 00:22:52;;;;;;;3.58;2.10;;;;;;;-0.87;71.44;100695.22;4975849;28;20049;-83
2021/10/25 00:25:18;;;;;;;8.13;2.30;;;;;;;-0.90;71.81;100699.59;4943167;28;20041;-83
2021/10/25 00:27:44;;;;;;;10.02;2.60;;;;;;;-0.88;71.97;100701.28;4927372;28;20055;-82
2021/10/25 00:30:16;;;;;;;4.85;2.13;;;;;;;-0.94;71.97;100696.16;4973825;28;20038;-81
2021/10/25 00:32:46;;;;;;;10.88;2.85;;;;;;;-0.95;72.30;100704.81;4942488;28;20065;-81
2021/10/25 00:35:12;;;;;;;7.03;2.55;;;;;;;-1.00;72.69;100701.44;4958615;28;20043;-84
2021/10/25 00:37:38;;;;;;;9.82;2.72;;;;;;;-1.01;72.73;100700.59;4941706;29;20075;-80
2021/10/25 00:40:06;;;;;;;8.45;3.60;;;;;;;-1.00;72.65;100711.81;4940575;28;20070;-84
2021/10/25 00:42:33;;;;;;;6.78;2.67;;;;;;;-1.03;72.72;100711.88;4974780;28;20042;-81
2021/10/25 00:44:59;;;;;;;9.43;4.00;;;;;;;-1.04;73.04;100711.00;4957895;28;20097;-80
2021/10/25 00:47:25;;;;;;;11.25;3.08;;;;;;;-1.04;73.00;100711.00;4974064;28;20121;-79
2021/10/25 00:49:51;;;;;;;8.23;3.42;;;;;;;-1.07;72.97;100724.03;4974268;28;20134;-79
2021/10/25 00:52:19;;;;;;;7.10;2.35;;;;;;;-1.03;73.18;100727.44;4974317;28;20440;-80
2021/10/25 00:54:45;;;;;;;6.47;2.65;;;;;;;-1.03;73.22;100733.47;4965832;28;20117;-80
2021/10/25 00:57:11;;;;;;;6.15;2.70;;;;;;;-1.03;73.23;100732.63;4993546;28;20132;-80
2021/10/25 00:59:37;;;;;;;5.25;2.92;;;;;;;-1.06;73.36;100743.91;4987992;28;20042;-83
2021/10/25 01:02:04;;;;;;;11.73;3.60;;;;;;;-1.07;73.30;100744.78;4974549;28;20050;-79
2021/10/25 01:04:31;;;;;;;10.77;3.03;;;;;;;-1.12;73.33;100732.72;4975248;28;20082;-81
2021/10/25 01:06:58;;;;;;;9.68;3.28;;;;;;;-1.15;73.75;100747.50;4957325;28;20034;-80
2021/10/25 01:09:24;;;;;;;8.15;3.00;;;;;;;-1.12;73.60;100743.13;4954629;29;20050;-81
2021/10/25 01:11:52;;;;;;;9.15;3.25;;;;;;;-1.12;73.69;100745.72;4944891;28;20042;-81
2021/10/25 01:14:18;;;;;;;7.22;2.97;;;;;;;-1.11;73.73;100750.03;4957279;28;20037;-79
2021/10/25 01:16:45;;;;;;;7.32;3.67;;;;;;;-1.15;73.91;100746.59;4973094;28;20058;-82
2021/10/25 01:19:15;;;;;;;10.25;3.15;;;;;;;-1.13;73.93;100747.47;4957519;28;20046;-83
2021/10/25 01:21:41;;;;;;;11.13;2.85;;;;;;;-1.17;73.82;100757.00;4951895;29;20098;-77
2021/10/25 01:24:07;;;;;;;12.40;3.15;;;;;;;-1.23;73.69;100744.09;4970684;28;20039;-80
2021/10/25 01:26:33;;;;;;;7.35;3.10;;;;;;;-1.25;74.25;100756.22;4957096;28;20049;-80
2021/10/25 01:28:59;;;;;;;9.40;3.42;;;;;;;-1.27;74.18;100755.41;4957115;28;20413;-83
2021/10/25 01:31:25;;;;;;;8.57;3.70;;;;;;;-1.24;74.12;100759.69;4957098;28;20043;-82
2021/10/25 01:33:52;;;;;;;11.52;3.17;;;;;;;-1.27;74.57;100755.41;4973863;28;20069;-81
2021/10/25 01:36:20;;;;;;;8.95;3.13;;;;;;;-1.29;74.16;100764.94;4941295;28;20042;-82
2021/10/25 01:38:46;;;;;;;9.57;3.40;;;;;;;-1.27;74.40;100759.72;4954131;28;20039;-82
2021/10/25 01:41:14;;;;;;;11.20;3.72;;;;;;;-1.26;74.30;100771.81;4956692;28;20050;-81
2021/10/25 01:43:41;;;;;;;10.45;3.80;;;;;;;-1.30;74.49;100765.81;4961309;28;20051;-79
2021/10/25 01:46:07;;;;;;;10.88;4.20;;;;;;;-1.33;74.74;100768.44;4956246;28;20042;-79
2021/10/25 01:48:33;;;;;;;10.18;3.22;;;;;;;-1.30;74.75;100765.81;4956477;28;20050;-79
2021/10/25 01:50:59;;;;;;;7.50;3.55;;;;;;;-1.32;74.56;100770.16;4955173;28;20043;-79
2021/10/25 01:53:28;;;;;;;6.25;3.25;;;;;;;-1.34;74.60;100774.50;4936610;28;20051;-79
2021/10/25 01:55:59;;;;;;;13.15;3.72;;;;;;;-1.33;74.75;100768.44;4949767;28;20038;-80
2021/10/25 01:58:29;;;;;;;6.90;3.10;;;;;;;-1.33;74.82;100778.81;4955790;28;20499;-80
2021/10/25 02:00:57;;;;;;;12.23;4.63;;;;;;;-1.38;74.72;100788.41;4955211;28;20047;-80
2021/10/25 02:03:23;;;;;;;10.88;3.38;;;;;;;-1.39;75.03;100786.66;4955698;28;20071;-81
2021/10/25 02:05:55;;;;;;;9.57;3.58;;;;;;;-1.40;74.86;100785.78;4954490;28;20046;-80
2021/10/25 02:08:23;;;;;;;8.82;3.88;;;;;;;-1.44;75.36;100784.09;4955866;28;20682;-79
2021/10/25 02:11:09;;;;;;;9.02;3.60;;;;;;;-1.42;75.20;100791.88;4971892;28;20190;-80
2021/10/25 02:13:41;;;;;;;15.60;4.63;;;;;;;-1.47;75.30;100790.19;4958051;28;20049;-77
2021/10/25 02:16:08;;;;;;;8.38;3.58;;;;;;;-1.43;75.10;100798.81;4972837;28;20062;-77
2021/10/25 02:18:34;;;;;;;12.38;4.28;;;;;;;-1.41;75.13;100803.97;4956283;28;20054;-78
2021/10/25 02:21:08;;;;;;;12.63;4.63;;;;;;;-1.44;75.19;100804.03;4971871;28;20105;-77
2021/10/25 02:23:34;;;;;;;9.48;4.10;;;;;;;-1.43;75.08;100811.78;4959487;28;20089;-76
2021/10/25 02:26:01;;;;;;;8.15;3.47;;;;;;;-1.43;75.29;100810.91;4973306;28;20038;-79
2021/10/25 02:28:27;;;;;;;9.15;3.92;;;;;;;-1.42;75.21;100815.22;4940611;28;20042;-78
2021/10/25 02:30:55;;;;;;;13.10;3.88;;;;;;;-1.39;75.09;100816.06;4944273;28;20101;-77
2021/10/25 02:33:23;;;;;;;9.38;3.67;;;;;;;-1.42;74.80;100818.69;4940142;29;20479;-79
2021/10/25 02:35:49;;;;;;;10.27;4.05;;;;;;;-1.45;75.11;100825.66;4933557;29;20047;-78
2021/10/25 02:38:17;;;;;;;7.90;3.47;;;;;;;-1.48;75.13;100819.59;4932977;29;20044;-78
2021/10/25 02:40:49;;;;;;;10.75;4.00;;;;;;;-1.44;74.98;100835.16;4937806;28;20134;-80
2021/10/25 02:43:15;;;;;;;12.70;3.38;;;;;;;-1.44;75.32;100828.22;4935028;29;20050;-78
2021/10/25 02:45:43;;;;;;;8.02;3.35;;;;;;;-1.45;75.27;100828.25;4935508;29;20047;-78
2021/10/25 02:48:10;;;;;;;12.60;3.85;;;;;;;-1.45;75.12;100823.91;4920693;29;20415;-78
2021/10/25 02:50:36;;;;;;;377.27;118.93;;;;;;;-1.49;74.94;100823.06;4934956;28;20039;-81
2021/10/25 02:53:03;;;;;;;19.60;8.23;;;;;;;-1.51;75.15;100829.13;4947948;29;20047;-79
2021/10/25 02:55:31;;;;;;;12.90;5.00;;;;;;;-1.55;75.02;100827.44;4931949;29;20044;-77
2021/10/25 02:57:58;;;;;;;13.60;4.60;;;;;;;-1.65;75.55;100837.88;4933568;29;20047;-80
2021/10/25 03:00:24;;;;;;;13.63;4.05;;;;;;;-1.66;75.48;100824.94;4935207;29;20467;-80
2021/10/25 03:02:50;;;;;;;13.02;5.65;;;;;;;-1.69;75.74;100835.34;4933965;29;20126;-81
2021/10/25 03:05:16;;;;;;;12.95;4.22;;;;;;;-1.72;75.76;100832.75;4935111;29;20038;-78
2021/10/25 03:07:43;;;;;;;14.35;4.03;;;;;;;-1.75;76.03;100838.84;4934527;29;20043;-77
2021/10/25 03:10:11;;;;;;;10.17;4.50;;;;;;;-1.76;75.93;100833.66;4934569;29;20047;-80
2021/10/25 03:12:37;;;;;;;14.20;5.05;;;;;;;-1.83;76.22;100841.50;4950233;28;20047;-77
2021/10/25 03:15:06;;;;;;;25.10;4.70;;;;;;;-1.89;76.60;100851.91;4919875;29;20087;-79
2021/10/25 03:17:32;;;;;;;;;;;;;;;-1.91;76.68;100853.63;4921074;29;20054;-79
2021/10/25 03:20:18;;;;;;;12.10;4.45;;;;;;;-1.97;77.05;100851.97;4937020;29;19919;-80
2021/10/25 03:22:45;;;;;;;14.57;5.15;;;;;;;-2.01;77.14;100859.75;4923938;29;20149;-81
2021/10/25 03:25:14;;;;;;;13.00;4.47;;;;;;;-2.04;77.34;100847.69;4940665;29;20413;-82
2021/10/25 03:27:41;;;;;;;15.02;5.00;;;;;;;-2.03;77.64;100853.72;4924315;29;20393;-81
2021/10/25 03:30:08;;;;;;;11.88;4.80;;;;;;;-2.00;77.13;100857.16;4908150;29;20050;-81
2021/10/25 03:32:38;;;;;;;13.18;6.15;;;;;;;-1.96;77.32;100855.41;4943333;28;20113;-80
2021/10/25 03:35:36;;;;;;;19.17;5.28;;;;;;;-1.93;77.62;100847.63;4976086;28;20066;-81
2021/10/25 03:38:07;;;;;;;14.52;4.78;;;;;;;-1.92;77.43;100851.91;4943977;28;20500;-82
2021/10/25 03:40:34;;;;;;;14.85;5.28;;;;;;;-1.91;77.22;100869.19;4943128;28;20043;-83
2021/10/25 03:43:00;;;;;;;15.93;5.05;;;;;;;-1.95;77.31;100859.72;4942993;28;20141;-82
2021/10/25 03:45:37;;;;;;;18.73;5.40;;;;;;;-1.97;77.53;100864.03;4943328;28;20047;-79
2021/10/25 03:48:11;;;;;;;14.27;5.32;;;;;;;-2.01;77.43;100876.16;4958591;28;20051;-81
2021/10/25 03:50:38;;;;;;;11.57;4.65;;;;;;;-2.06;77.59;100864.97;4959157;28;20138;-79
2021/10/25 03:53:28;;;;;;;19.77;5.60;;;;;;;-2.09;77.74;100879.66;4958485;28;20051;-81
2021/10/25 04:26:24;;;;;;;18.15;6.97;;;;;;;-2.20;78.65;100900.47;4885653;29;20199;-79
2021/10/25 04:28:50;;;;;;;17.85;6.53;;;;;;;-2.15;78.37;100909.09;4900391;29;20160;-79
2021/10/25 04:31:17;;;;;;;20.65;6.63;;;;;;;-1.91;78.20;100902.91;4898869;29;20048;-80
2021/10/25 04:33:59;;;;;;;26.20;7.05;;;;;;;-1.37;77.08;100906.84;4900003;29;20427;-77
2021/10/25 04:36:48;;;;;;;16.65;7.00;;;;;;;-0.85;75.20;100908.13;4840295;29;20050;-77
2021/10/25 04:39:26;;;;;;;22.13;7.43;;;;;;;-0.35;73.46;100911.06;4840267;29;20507;-81
2021/10/25 04:41:56;;;;;;;20.42;6.55;;;;;;;0.26;71.57;100911.13;4840791;29;20093;-79
2021/10/25 04:44:21;;;;;;;16.83;7.15;;;;;;;0.66;69.89;100904.47;4841319;29;20582;-81
2021/10/25 04:46:48;;;;;;;23.05;7.57;;;;;;;1.00;67.95;100903.88;4882528;29;20143;-79
2021/10/25 04:49:13;;;;;;;20.85;7.22;;;;;;;1.71;66.93;100908.63;4901302;29;20083;-80
2021/10/25 04:52:15;;;;;;;32.72;13.48;;;;;;;1.89;64.78;100922.19;4889213;29;20092;-81
2021/10/25 04:54:40;;;;;;;19.20;6.10;;;;;;;2.62;63.13;100929.28;4881118;29;20052;-81
2021/10/25 04:57:06;;;;;;;14.23;6.40;;;;;;;3.05;61.38;100932.56;4880225;29;20119;-81
2021/10/25 04:59:32;;;;;;;18.45;6.68;;;;;;;3.60;59.25;100935.50;4881213;29;20048;-79
2021/10/25 05:01:58;;;;;;;16.23;7.07;;;;;;;4.13;57.59;100931.38;4865599;29;20139;-80
2021/10/25 05:04:24;;;;;;;14.32;7.03;;;;;;;4.45;55.48;100929.50;4897254;29;20479;-79
2021/10/25 05:06:50;;;;;;;17.50;6.40;;;;;;;4.73;55.19;100934.72;4897026;29;20062;-81
2021/10/25 05:09:16;;;;;;;73.72;22.13;;;;;;;5.54;53.81;100937.28;4880015;29;20052;-80
2021/10/25 05:11:42;;;;;;;18.83;7.50;;;;;;;5.59;53.72;100938.81;4880043;29;20112;-77
2021/10/25 05:14:08;;;;;;;16.10;6.30;;;;;;;5.60;52.04;100943.16;4945449;28;20058;-79
2021/10/25 05:16:36;;;;;;;21.52;6.38;;;;;;;6.13;50.95;100941.25;4957126;28;20043;-78
2021/10/25 05:19:07;;;;;;;12.35;5.70;;;;;;;6.11;50.32;100936.06;4928266;28;20046;-80
2021/10/25 05:21:34;;;;;;;13.38;7.53;;;;;;;6.06;50.07;100945.03;4944379;28;20046;-80
2021/10/25 05:24:01;;;;;;;17.83;7.78;;;;;;;6.57;49.73;100949.19;4959134;28;20042;-83
2021/10/25 05:26:29;;;;;;;23.92;6.57;;;;;;;7.26;47.88;100945.50;4958643;28;20047;-80
2021/10/25 05:28:55;;;;;;;17.67;10.33;;;;;;;8.36;45.78;100945.84;4957776;28;20058;-81
2021/10/25 05:31:21;;;;;;;22.95;7.43;;;;;;;8.93;44.54;100962.53;4958091;28;20344;-84
2021/10/25 05:33:47;;;;;;;18.80;8.57;;;;;;;8.81;43.75;100964.84;4939129;29;20051;-85
2021/10/25 05:36:13;;;;;;;46.38;17.48;;;;;;;8.95;42.54;100969.44;4922534;29;20058;-82
2021/10/25 05:38:39;;;;;;;31.08;8.98;;;;;;;8.84;43.19;100979.66;4906874;29;20058;-85
2021/10/25 05:41:09;;;;;;;19.27;6.22;;;;;;;10.12;41.79;100969.59;4922910;29;20051;-83
2021/10/25 05:43:36;;;;;;;18.77;7.28;;;;;;;10.93;39.58;100971.31;4923022;29;20059;-86
2021/10/25 05:46:03;;;;;;;23.75;10.00;;;;;;;10.95;37.96;100974.72;4907425;29;20572;-84
2021/10/25 05:48:31;;;;;;;24.75;8.63;;;;;;;11.53;37.99;100972.25;4885790;29;20056;-83
2021/10/25 05:51:02;;;;;;;21.67;8.15;;;;;;;12.38;37.21;100975.00;4886772;29;20055;-84
2021/10/25 05:53:29;;;;;;;28.85;13.43;;;;;;;12.52;36.41;100969.66;4832920;29;20060;-83
2021/10/25 05:55:57;;;;;;;17.65;7.68;;;;;;;13.07;35.95;100962.53;4831481;29;20057;-81
2021/10/25 05:58:23;;;;;;;19.15;9.07;;;;;;;13.41;35.30;100975.38;4847869;29;20134;-85
2021/10/25 06:01:28;;;;;;;21.23;8.25;;;;;;;14.33;33.46;100973.41;4831593;29;20055;-82
2021/10/25 06:04:11;;;;;;;14.77;8.02;;;;;;;14.48;32.56;100962.56;4830915;29;20419;-86
2021/10/25 06:06:44;;;;;;;22.55;8.82;;;;;;;14.11;32.16;100967.91;4810029;29;20062;-82
2021/10/25 06:09:12;;;;;;;18.75;7.60;;;;;;;14.74;32.11;100978.50;4794783;29;20153;-84
2021/10/25 06:11:39;;;;;;;18.55;8.82;;;;;;;14.46;32.63;100976.00;4809225;29;20149;-80
2021/10/25 06:14:07;;;;;;;17.33;8.48;;;;;;;15.16;31.16;100978.91;4809254;29;20149;-80
2021/10/25 06:16:41;;;;;;;17.15;7.45;;;;;;;15.45;30.67;100965.19;4809696;29;20606;-80
2021/10/25 06:19:12;;;;;;;15.45;7.57;;;;;;;15.56;30.05;100973.19;4839467;29;20054;-82
2021/10/25 06:21:40;;;;;;;26.33;8.80;;;;;;;14.85;29.89;100981.22;4809600;29;20062;-81
2021/10/25 06:24:08;;;;;;;12.77;8.43;;;;;;;13.27;32.20;100981.56;4834203;29;20562;-81
2021/10/25 06:26:57;;;;;;;14.38;8.18;;;;;;;12.60;32.83;100988.59;4867810;29;20421;-85
2021/10/25 06:29:23;;;;;;;21.45;10.88;;;;;;;12.61;33.51;100997.41;4899105;29;20048;-83
2021/10/25 06:31:51;;;;;;;19.65;9.45;;;;;;;12.31;34.14;101001.06;4899691;29;20047;-81
2021/10/25 06:34:22;;;;;;;14.27;8.15;;;;;;;11.02;35.19;100999.06;4899982;29;20142;-80
2021/10/25 06:37:08;;;;;;;19.08;9.93;;;;;;;10.15;36.90;100999.38;4904769;29;20090;-85
2021/10/25 06:39:54;;;;;;;13.82;7.53;;;;;;;9.07;37.75;101002.25;4918851;28;20052;-81
2021/10/25 06:42:20;;;;;;;14.88;7.90;;;;;;;7.80;40.04;101008.13;4927289;28;20047;-81
2021/10/25 06:45:02;;;;;;;17.77;7.38;;;;;;;7.99;41.47;101012.56;4926443;28;20053;-82
2021/10/25 06:47:36;;;;;;;20.40;7.38;;;;;;;7.69;42.34;101005.94;4927302;28;20039;-86
2021/10/25 06:50:12;;;;;;;30.73;13.52;;;;;;;7.55;42.59;101003.94;4941556;28;20077;-83
2021/10/25 06:52:47;;;;;;;22.48;10.98;;;;;;;6.83;43.56;101005.13;4917501;29;20056;-83
2021/10/25 06:55:13;;;;;;;27.15;11.88;;;;;;;6.83;44.39;101012.16;4887925;29;20071;-82
2021/10/25 06:57:44;;;;;;;33.05;12.90;;;;;;;6.79;44.61;101008.78;4892713;29;20070;-84
2021/10/25 07:00:14;;;;;;;41.28;15.07;;;;;;;6.42;45.27;101008.47;4907467;29;20046;-83
2021/10/25 07:02:43;;;;;;;21.33;10.65;;;;;;;5.82;46.67;101019.38;4876508;29;20040;-83
2021/10/25 07:05:13;;;;;;;22.10;8.77;;;;;;;5.99;47.39;101021.44;4907891;29;20047;-81
2021/10/25 07:07:39;;;;;;;18.15;8.77;;;;;;;6.10;47.00;101028.06;4876998;29;20047;-85
2021/10/25 07:10:10;;;;;;;24.52;9.68;;;;;;;6.39;46.84;101026.09;4891513;29;20102;-84
2021/10/25 07:12:44;;;;;;;35.75;15.35;;;;;;;6.07;46.75;101042.16;4905430;29;20480;-81
2021/10/25 07:15:12;;;;;;;55.15;18.92;;;;;;;5.57;48.13;101045.63;4878308;29;20505;-83
2021/10/25 07:26:42;;;;;;;38.88;14.88;;;;;;;7.31;45.48;101037.38;4815139;29;20066;-83
2021/10/25 08:03:03;;;;;;;27.88;9.88;;;;;;;6.41;48.14;101048.78;4926220;29;20122;-84
2021/10/25 08:05:37;;;;;;;33.70;13.02;;;;;;;6.31;48.02;101045.63;4894287;29;20051;-80
2021/10/25 08:08:20;;;;;;;36.93;13.20;;;;;;;5.99;47.92;101047.69;4909356;29;20571;-82
2021/10/25 08:11:01;;;;;;;23.08;11.35;;;;;;;6.01;48.11;101046.75;4910950;29;20465;-80
2021/10/25 08:13:35;;;;;;;29.48;11.00;;;;;;;5.92;47.83;101048.78;4922402;29;20409;-81
2021/10/25 08:16:10;;;;;;;33.60;11.60;;;;;;;6.21;48.01;101043.44;4917976;29;20110;-82
2021/10/25 08:19:05;;;;;;;25.40;12.35;;;;;;;5.48;48.81;101045.91;4942619;28;20063;-82
2021/10/25 08:21:33;;;;;;;23.65;11.35;;;;;;;5.48;49.30;101048.53;4932280;28;20046;-85
2021/10/25 08:24:01;;;;;;;36.85;16.88;;;;;;;5.25;49.83;101052.78;4897558;28;20052;-83
2021/10/25 08:26:46;;;;;;;16.92;7.78;;;;;;;5.79;48.78;101047.50;4945739;28;20078;-81
2021/10/25 08:29:15;;;;;;;19.60;8.15;;;;;;;6.69;47.30;101049.50;4943924;28;20046;-84
2021/10/25 08:31:54;;;;;;;27.02;11.48;;;;;;;7.18;46.23;101042.31;4929207;29;20047;-82
2021/10/25 08:40:02;;;;;;;18.98;7.63;;;;;;;7.79;44.45;101038.00;4927952;29;20047;-82
2021/10/25 08:42:39;;;;;;;17.42;7.75;;;;;;;7.97;43.49;101038.13;4903782;29;20652;-83
2021/10/25 08:45:34;;;;;;;14.90;7.35;;;;;;;8.57;42.55;101040.69;4885735;29;20052;-82
2021/10/25 08:48:04;;;;;;;15.88;6.80;;;;;;;8.93;40.98;101039.88;4900188;29;20048;-83
2021/10/25 08:50:35;;;;;;;21.77;8.88;;;;;;;10.23;39.53;101020.13;4898407;29;20040;-82
2021/10/25 08:53:07;;;;;;;16.88;7.55;;;;;;;12.06;36.61;101015.88;4898589;29;20055;-83
2021/10/25 08:55:47;;;;;;;13.23;7.13;;;;;;;12.86;34.56;101022.34;4898161;29;20054;-82
2021/10/25 08:58:14;;;;;;;17.65;6.97;;;;;;;13.30;33.38;101023.91;4913407;29;20048;-81
2021/10/25 09:00:50;;;;;;;13.05;7.10;;;;;;;13.71;33.06;101016.78;4903045;29;20115;-82
2021/10/25 09:03:34;;;;;;;23.73;8.98;;;;;;;13.70;32.61;101017.72;4901621;29;20062;-82
2021/10/25 09:06:21;;;;;;;13.30;6.80;;;;;;;12.66;32.62;101029.81;4916004;29;20100;-82
2021/10/25 09:09:00;;;;;;;10.70;6.93;;;;;;;12.63;33.39;101022.03;4899727;29;20052;-81
2021/10/25 09:11:28;;;;;;;15.20;7.47;;;;;;;13.08;32.82;101025.34;4866851;29;20047;-81
2021/10/25 09:14:17;;;;;;;18.00;7.30;;;;;;;13.33;31.18;101026.34;4930033;29;20084;-85
2021/10/25 09:16:58;;;;;;;16.83;7.50;;;;;;;13.28;31.34;101028.44;4955746;29;20047;-81
2021/10/25 09:19:48;;;;;;;13.55;7.43;;;;;;;14.47;30.47;101019.47;4935819;29;20665;-82
2021/10/25 09:22:20;;;;;;;12.88;6.95;;;;;;;15.49;28.82;101020.84;4958496;29;20094;-84
2021/10/25 09:24:53;;;;;;;17.38;8.57;;;;;;;14.82;29.06;101016.91;4924910;29;20039;-81
2021/10/25 09:27:38;;;;;;;14.73;8.63;;;;;;;14.57;29.51;101020.50;4939779;29;20070;-83
2021/10/25 09:30:16;;;;;;;19.08;7.53;;;;;;;14.28;29.60;101020.78;4924859;29;20043;-85
2021/10/25 09:32:45;;;;;;;11.35;5.68;;;;;;;14.37;28.91;101014.78;4923649;29;20154;-84
2021/10/25 09:35:45;;;;;;;17.13;7.57;;;;;;;14.59;28.20;101010.56;4944094;29;20085;-83
2021/10/25 09:50:54;;;;;;;21.33;6.47;;;;;;;11.45;33.71;101009.78;4813212;29;20464;-84
2021/10/25 09:53:30;;;;;;;12.45;5.95;;;;;;;11.82;32.91;101011.09;4813259;29;20049;-85
2021/10/25 09:55:57;;;;;;;23.13;12.00;;;;;;;12.54;32.45;101010.22;4826527;29;20073;-81
2021/10/25 09:58:27;;;;;;;15.45;6.22;;;;;;;12.08;31.43;101013.13;4796707;29;20081;-81
2021/10/25 10:00:56;;;;;;;18.75;4.85;;;;;;;11.72;31.47;101009.91;4844311;29;20135;-82
2021/10/25 10:03:23;;;;;;;18.77;5.57;;;;;;;12.11;30.80;101005.81;4815583;29;20590;-82
2021/10/25 10:06:00;;;;;;;14.27;5.10;;;;;;;12.17;30.60;101012.53;4816144;29;20046;-83
2021/10/25 10:08:43;;;;;;;21.88;9.05;;;;;;;12.38;31.26;101012.16;4815390;29;20077;-86
2021/10/25 10:11:21;;;;;;;14.77;5.38;;;;;;;12.45;30.60;101011.66;4833422;29;20053;-85
2021/10/25 10:13:53;;;;;;;16.88;5.60;;;;;;;12.50;30.50;101007.84;4879290;29;20153;-85
2021/10/25 10:16:46;;;;;;;12.55;5.75;;;;;;;12.46;30.60;100999.22;4897434;29;20040;-85
2021/10/25 10:19:14;;;;;;;26.48;6.13;;;;;;;12.78;30.27;101006.94;4911659;29;20043;-82
2021/10/25 10:22:02;;;;;;;11.13;5.35;;;;;;;12.88;30.06;101001.88;4932704;29;20500;-84
2021/10/25 10:24:40;;;;;;;;;;;;;;;12.43;29.74;101002.09;4943591;29;20131;-83
2021/10/25 10:27:13;;;;;;;15.10;5.15;;;;;;;12.82;29.47;100999.63;4886062;29;19931;-85
2021/10/25 10:29:45;;;;;;;17.40;5.43;;;;;;;12.65;29.21;100996.25;4890126;29;20132;-83
2021/10/25 10:32:32;;;;;;;28.17;10.75;;;;;;;11.61;29.71;100999.13;4900826;29;20069;-82
2021/10/25 10:35:41;;;;;;;16.23;5.70;;;;;;;11.63;30.47;101002.53;4829027;29;20145;-82
2021/10/25 10:38:18;;;;;;;11.57;5.25;;;;;;;10.90;30.40;100998.81;4843271;29;20105;-83
2021/10/25 10:41:01;;;;;;;;;;;;;;;10.97;31.45;100988.75;4829520;29;20059;-85
2021/10/25 10:44:00;;;;;;;15.57;5.40;;;;;;;11.14;31.02;100993.91;4841782;29;20286;-82
2021/10/25 10:47:12;;;;;;;19.38;9.30;;;;;;;11.37;30.90;100993.50;4828367;29;20481;-84
2021/10/25 10:49:55;;;;;;;11.77;4.80;;;;;;;10.93;31.79;100987.19;4828911;29;20046;-86
2021/10/25 10:52:41;;;;;;;10.20;4.40;;;;;;;10.43;32.76;100983.81;4811677;29;20089;-85
2021/10/25 10:55:25;;;;;;;10.50;4.38;;;;;;;10.26;32.34;100976.78;4827836;29;20099;-84
2021/10/25 11:00:34;;;;;;;11.02;4.40;;;;;;;9.92;33.07;100968.03;4827798;29;20061;-84
2021/10/25 11:03:25;;;;;;;10.27;4.18;;;;;;;9.46;34.32;100977.44;4843742;29;20061;-83
2021/10/25 11:06:10;;;;;;;9.63;4.45;;;;;;;9.55;33.55;100969.03;4799075;29;20053;-84
2021/10/25 11:12:12;;;;;;;9.80;4.53;;;;;;;8.98;34.27;100957.88;4902690;29;20056;-83
2021/10/25 11:14:40;;;;;;;28.65;7.10;;;;;;;8.88;34.56;100958.34;4901788;29;20048;-80
2021/10/25 11:17:25;;;;;;;26.65;6.75;;;;;;;9.21;34.90;100968.13;4916668;29;20084;-83
2021/10/25 11:19:56;;;;;;;12.05;4.65;;;;;;;9.19;34.49;100967.34;4901993;29;20060;-80
2021/10/25 11:22:34;;;;;;;13.35;5.28;;;;;;;8.50;35.06;100965.44;4842814;29;20051;-81
2021/10/25 11:25:04;;;;;;;16.30;6.03;;;;;;;8.18;36.82;100960.72;4874747;29;20048;-87
2021/10/25 11:27:35;;;;;;;19.02;6.82;;;;;;;8.37;36.11;100967.78;4883966;29;20057;-81
2021/10/25 11:30:17;;;;;;;12.20;4.90;;;;;;;8.56;36.40;100958.13;4849320;29;20091;-82
2021/10/25 11:32:45;;;;;;;11.93;3.75;;;;;;;8.85;35.44;100965.56;4845288;29;20540;-83
2021/10/25 11:35:14;;;;;;;10.35;4.03;;;;;;;8.98;36.13;100955.22;4821318;29;20180;-82
2021/10/25 11:37:52;;;;;;;15.80;5.30;;;;;;;8.89;36.42;100949.47;4836474;29;20052;-82
2021/10/25 11:40:23;;;;;;;7.63;3.40;;;;;;;8.78;35.41;100964.13;4867575;29;20049;-81
2021/10/25 11:42:54;;;;;;;9.82;3.28;;;;;;;8.33;35.80;100959.16;4857744;29;20048;-83
2021/10/25 11:45:25;;;;;;;15.52;5.22;;;;;;;8.04;36.12;100952.63;4856627;29;20418;-82
2021/10/25 11:47:53;;;;;;;10.43;4.68;;;;;;;7.81;36.50;100953.66;4875139;29;20059;-85
2021/10/25 11:50:45;;;;;;;8.45;4.03;;;;;;;7.60;36.46;100949.28;4862296;29;20080;-85
2021/10/25 11:53:32;;;;;;;11.77;3.90;;;;;;;7.26;37.84;100944.63;4846776;29;20061;-87
2021/10/25 11:56:01;;;;;;;10.98;4.55;;;;;;;7.44;37.29;100940.34;4875153;29;20139;-81
2021/10/25 11:58:44;;;;;;;9.60;3.22;;;;;;;6.86;37.95;100927.91;4843631;29;20052;-85
2021/10/25 12:01:17;;;;;;;12.25;4.30;;;;;;;6.62;39.47;100941.13;4845693;29;20063;-84
2021/10/25 12:03:52;;;;;;;11.48;4.10;;;;;;;6.49;40.49;100932.84;4876092;29;20481;-85
2021/10/25 12:06:22;;;;;;;18.27;4.97;;;;;;;6.70;39.42;100915.34;4839680;29;20053;-86
2021/10/25 12:08:54;;;;;;;26.38;4.47;;;;;;;7.26;39.29;100916.56;4871971;29;20091;-87
2021/10/25 12:11:40;;;;;;;11.85;5.60;;;;;;;7.47;38.19;100920.94;4873259;29;20057;-84
2021/10/25 12:14:09;;;;;;;11.75;4.75;;;;;;;7.32;38.14;100925.94;4864777;29;20107;-84
2021/10/25 12:16:59;;;;;;;10.30;4.43;;;;;;;7.47;38.67;100921.78;4861206;29;20130;-86
2021/10/25 12:19:27;;;;;;;;;;;;;;;7.31;38.37;100923.38;4874277;29;20053;-84
2021/10/25 12:21:53;;;;;;;12.53;4.20;;;;;;;7.16;38.18;100917.00;4868619;29;19946;-86
2021/10/25 12:24:22;;;;;;;8.05;3.20;;;;;;;6.83;38.48;100920.13;4868900;29;20168;-86
2021/10/25 12:26:59;;;;;;;8.25;3.45;;;;;;;6.35;40.61;100922.03;4854102;29;20590;-82
2021/10/25 12:29:26;;;;;;;7.93;4.90;;;;;;;6.34;40.67;100917.69;4865495;29;20105;-83
2021/10/25 12:31:53;;;;;;;9.65;4.45;;;;;;;6.19;41.06;100917.38;4853347;29;20415;-83
2021/10/25 12:34:19;;;;;;;9.07;3.70;;;;;;;5.97;41.27;100925.22;4848690;29;20063;-84
2021/10/25 12:36:47;;;;;;;14.07;4.95;;;;;;;5.81;42.43;100919.66;4895785;29;20051;-85
2021/10/25 12:39:16;;;;;;;8.75;4.13;;;;;;;5.46;42.73;100916.56;4909310;29;20056;-84
2021/10/25 12:41:52;;;;;;;8.43;3.55;;;;;;;5.39;42.76;100922.94;4911541;29;20051;-85
2021/10/25 12:44:44;;;;;;;12.15;3.78;;;;;;;5.26;43.17;100918.13;4910328;29;20091;-86
2021/10/25 12:47:39;;;;;;;8.90;4.07;;;;;;;5.11;43.84;100908.13;4907714;29;20112;-85
2021/10/25 12:50:20;;;;;;;14.32;4.90;;;;;;;4.93;44.66;100905.22;4906022;29;20433;-85
2021/10/25 12:53:14;;;;;;;11.25;3.95;;;;;;;5.10;44.64;100906.44;4878856;29;20454;-84
2021/10/25 12:55:42;;;;;;;10.50;4.65;;;;;;;5.21;44.09;100901.69;4900238;29;20056;-83
2021/10/25 12:58:12;;;;;;;21.88;6.75;;;;;;;5.25;44.44;100905.91;4905122;29;20453;-86
2021/10/25 13:00:38;;;;;;;6.93;3.85;;;;;;;5.08;44.58;100909.09;4923450;29;20530;-82
2021/10/25 13:03:11;;;;;;;11.70;3.97;;;;;;;5.05;44.97;100892.63;4889786;29;20580;-84
2021/10/25 13:05:54;;;;;;;17.35;6.50;;;;;;;5.17;45.04;100892.19;4890428;29;20059;-82
2021/10/25 13:08:27;;;;;;;14.75;4.97;;;;;;;5.19;44.85;100885.13;4908183;29;20055;-83
2021/10/25 13:10:54;;;;;;;14.50;5.60;;;;;;;4.97;44.96;100880.66;4891048;29;20112;-80
2021/10/25 13:13:26;;;;;;;26.70;9.30;;;;;;;4.87;45.23;100884.47;4902892;29;20478;-81
2021/10/25 13:15:52;;;;;;;9.50;4.13;;;;;;;4.88;44.91;100891.44;4873652;29;20105;-84
2021/10/25 13:18:18;;;;;;;19.38;6.40;;;;;;;4.82;45.80;100896.88;4903604;29;20064;-81
2021/10/25 13:20:47;;;;;;;9.80;4.03;;;;;;;4.83;45.57;100888.09;4872419;29;20074;-85
2021/10/25 13:23:17;;;;;;;12.18;4.90;;;;;;;4.66;46.07;100875.56;4860509;29;20066;-81